createdAt,value
2023-05-14T00:00:47.470Z,56.50
2023-05-14T00:03:14.461Z,56.50
2023-05-14T00:05:41.334Z,56.50
2023-05-14T00:08:08.065Z,56.50
2023-05-14T00:10:35.294Z,56.60
2023-05-14T00:13:02.224Z,56.60
2023-05-14T00:15:28.959Z,56.70
2023-05-14T00:17:55.696Z,56.80
2023-05-14T00:20:22.634Z,56.80
2023-05-14T00:22:49.885Z,56.80
2023-05-14T00:25:16.603Z,56.80
2023-05-14T00:27:43.304Z,56.80
2023-05-14T00:30:10.332Z,56.70
2023-05-14T00:32:37.322Z,56.70
2023-05-14T00:35:04.441Z,56.70
2023-05-14T00:37:31.565Z,56.70
2023-05-14T00:39:58.681Z,56.70
2023-05-14T00:42:26.571Z,56.90
2023-05-14T00:44:53.447Z,56.90
2023-05-14T00:47:20.944Z,57.00
2023-05-14T00:49:47.801Z,57.10
2023-05-14T00:52:15.264Z,57.10
2023-05-14T00:54:42.144Z,57.10
2023-05-14T00:57:08.915Z,57.10
2023-05-14T00:59:35.926Z,57.20
2023-05-14T01:02:02.869Z,57.30
2023-05-14T01:04:29.785Z,57.40
2023-05-14T01:07:24.428Z,57.40
2023-05-14T01:10:13.593Z,57.30
2023-05-14T01:12:45.031Z,57.20
2023-05-14T01:15:15.254Z,57.30
2023-05-14T01:17:56.526Z,57.20
2023-05-14T01:20:23.656Z,57.30
2023-05-14T01:22:50.529Z,57.40
2023-05-14T01:25:17.489Z,57.50
2023-05-14T01:27:52.633Z,57.60
2023-05-14T01:30:23.001Z,57.50
2023-05-14T01:32:51.774Z,57.60
2023-05-14T01:35:18.765Z,57.70
2023-05-14T01:37:45.929Z,57.70
2023-05-14T01:40:14.342Z,57.80
2023-05-14T01:42:41.487Z,57.80
2023-05-14T01:45:08.544Z,58.00
2023-05-14T01:47:35.683Z,58.30
2023-05-14T01:50:02.512Z,58.30
2023-05-14T01:52:29.232Z,58.30
2023-05-14T01:54:55.893Z,58.40
2023-05-14T01:57:22.825Z,58.40
2023-05-14T01:59:49.589Z,58.40
2023-05-14T02:02:16.322Z,58.40
2023-05-14T02:04:42.999Z,58.30
2023-05-14T02:07:09.729Z,58.20
2023-05-14T02:09:36.486Z,58.10
2023-05-14T02:12:03.225Z,58.00
2023-05-14T02:14:30.357Z,58.00
2023-05-14T02:16:57.172Z,57.90
2023-05-14T02:19:24.239Z,57.90
2023-05-14T02:21:51.014Z,57.80
2023-05-14T02:24:17.716Z,58.00
2023-05-14T02:26:44.436Z,58.10
2023-05-14T02:29:11.475Z,58.00
2023-05-14T02:31:38.558Z,58.10
2023-05-14T02:34:06.669Z,58.20
2023-05-14T02:36:33.775Z,58.20
2023-05-14T02:39:04.545Z,58.30
2023-05-14T02:41:31.303Z,58.30
2023-05-14T02:43:57.970Z,58.30
2023-05-14T02:46:25.630Z,58.30
2023-05-14T02:48:52.390Z,58.30
2023-05-14T02:51:21.074Z,58.30
2023-05-14T02:53:48.032Z,58.30
2023-05-14T02:56:14.802Z,58.30
2023-05-14T02:58:41.718Z,58.20
2023-05-14T03:01:08.794Z,58.20
2023-05-14T03:03:36.504Z,58.30
2023-05-14T03:06:05.185Z,58.30
2023-05-14T03:08:31.870Z,58.40
2023-05-14T03:10:58.605Z,58.40
2023-05-14T03:13:25.358Z,58.40
2023-05-14T03:15:54.900Z,58.40
2023-05-14T03:18:22.188Z,58.50
2023-05-14T03:20:49.025Z,58.50
2023-05-14T03:23:15.863Z,58.50
2023-05-14T03:25:42.532Z,58.60
2023-05-14T03:28:09.749Z,58.60
2023-05-14T03:30:36.606Z,58.60
2023-05-14T03:33:03.637Z,58.60
2023-05-14T03:35:30.462Z,58.70
2023-05-14T03:37:59.165Z,58.60
2023-05-14T03:40:26.040Z,58.60
2023-05-14T03:42:52.910Z,58.70
2023-05-14T03:45:19.764Z,58.60
2023-05-14T03:47:46.598Z,58.70
2023-05-14T03:50:13.300Z,58.70
2023-05-14T03:52:40.676Z,58.70
2023-05-14T03:55:08.269Z,58.80
2023-05-14T03:57:36.846Z,58.90
2023-05-14T04:00:04.296Z,59.00
2023-05-14T04:02:43.516Z,59.10
2023-05-14T04:05:10.453Z,59.00
2023-05-14T04:07:37.897Z,59.00
2023-05-14T04:10:05.026Z,59.20
2023-05-14T04:12:34.426Z,59.20
2023-05-14T04:15:01.263Z,59.10
2023-05-14T04:17:28.030Z,59.10
2023-05-14T04:19:54.986Z,58.90
2023-05-14T04:22:21.777Z,58.90
2023-05-14T04:24:48.866Z,58.90
2023-05-14T04:27:24.775Z,58.90
2023-05-14T04:29:51.879Z,58.90
2023-05-14T04:32:18.940Z,58.90
2023-05-14T04:34:49.567Z,58.90
2023-05-14T04:37:18.612Z,59.00
2023-05-14T04:39:45.448Z,59.00
2023-05-14T04:42:12.365Z,59.20
2023-05-14T04:44:39.361Z,59.30
2023-05-14T04:47:07.556Z,59.60
2023-05-14T04:49:34.916Z,59.90
2023-05-14T04:52:02.567Z,60.40
2023-05-14T04:54:29.500Z,60.90
2023-05-14T04:56:56.328Z,61.70
2023-05-14T04:59:23.105Z,62.10
2023-05-14T05:01:49.897Z,62.60
2023-05-14T05:04:16.675Z,63.40
2023-05-14T05:06:43.502Z,64.00
2023-05-14T05:09:10.356Z,64.60
2023-05-14T05:11:37.792Z,65.00
2023-05-14T05:14:04.536Z,65.40
2023-05-14T05:16:31.359Z,65.70
2023-05-14T05:18:58.351Z,66.30
2023-05-14T05:21:25.695Z,66.90
2023-05-14T05:23:52.646Z,67.30
2023-05-14T05:26:19.607Z,67.70
2023-05-14T05:28:46.625Z,68.20
2023-05-14T05:31:17.620Z,68.60
2023-05-14T05:33:45.886Z,68.60
2023-05-14T05:36:15.798Z,68.60
2023-05-14T05:38:42.999Z,69.10
2023-05-14T05:41:09.742Z,69.50
2023-05-14T05:43:36.750Z,69.70
2023-05-14T05:46:03.451Z,69.80
2023-05-14T05:48:30.835Z,69.60
2023-05-14T05:50:58.844Z,68.90
2023-05-14T05:53:26.276Z,68.90
2023-05-14T05:55:53.180Z,68.90
2023-05-14T05:58:20.244Z,68.80
2023-05-14T06:00:47.220Z,68.20
2023-05-14T06:03:14.177Z,67.90
2023-05-14T06:05:41.210Z,67.60
2023-05-14T06:08:08.117Z,67.60
2023-05-14T06:10:36.163Z,67.40
2023-05-14T06:13:03.100Z,67.10
2023-05-14T06:15:30.079Z,66.70
2023-05-14T06:17:57.084Z,66.30
2023-05-14T06:20:24.113Z,65.80
2023-05-14T06:22:51.166Z,65.50
2023-05-14T06:25:18.433Z,65.30
2023-05-14T06:27:45.482Z,65.00
2023-05-14T06:30:12.642Z,64.60
2023-05-14T06:32:40.561Z,64.30
2023-05-14T06:35:07.752Z,63.90
2023-05-14T06:37:34.662Z,63.70
2023-05-14T06:40:01.979Z,63.50
2023-05-14T06:42:28.758Z,63.50
2023-05-14T06:44:56.015Z,63.50
2023-05-14T06:47:23.001Z,63.50
2023-05-14T06:49:50.031Z,63.40
2023-05-14T06:52:25.881Z,63.30
2023-05-14T06:54:52.820Z,63.40
2023-05-14T06:57:22.719Z,63.30
2023-05-14T06:59:49.517Z,63.30
2023-05-14T07:02:16.397Z,63.50
2023-05-14T07:05:00.308Z,63.60
2023-05-14T07:07:27.279Z,64.10
2023-05-14T07:09:55.270Z,64.30
2023-05-14T07:12:26.023Z,64.40
2023-05-14T07:14:56.979Z,64.30
2023-05-14T07:17:24.285Z,64.10
2023-05-14T07:19:51.321Z,64.30
2023-05-14T07:22:18.573Z,64.30
2023-05-14T07:24:45.470Z,64.30
2023-05-14T07:27:12.471Z,64.40
2023-05-14T07:29:39.389Z,64.60
2023-05-14T07:32:08.522Z,64.60
2023-05-14T07:34:35.467Z,64.90
2023-05-14T07:37:02.759Z,65.00
2023-05-14T07:52:46.855Z,67.30
2023-05-14T07:58:29.869Z,67.40
2023-05-14T08:01:22.544Z,68.00
2023-05-14T08:03:50.012Z,68.60
2023-05-14T08:06:18.126Z,68.90
2023-05-14T08:08:45.189Z,69.50
2023-05-14T08:11:12.325Z,69.60
2023-05-14T08:13:39.367Z,70.40
2023-05-14T08:16:07.253Z,70.60
2023-05-14T08:18:34.472Z,70.80
2023-05-14T08:21:03.396Z,71.00
2023-05-14T08:23:30.735Z,71.70
2023-05-14T08:26:00.478Z,71.80
2023-05-14T08:28:27.613Z,72.00
2023-05-14T08:30:54.901Z,71.80
2023-05-14T08:33:24.320Z,72.30
2023-05-14T08:35:54.784Z,72.40
2023-05-14T08:38:21.728Z,72.30
2023-05-14T08:40:49.681Z,72.00
2023-05-14T08:43:19.667Z,72.00
2023-05-14T08:45:46.779Z,71.90
2023-05-14T08:48:14.832Z,72.20
2023-05-14T08:50:41.999Z,72.20
2023-05-14T08:53:34.837Z,72.10
2023-05-14T08:56:02.182Z,72.10
2023-05-14T08:58:29.342Z,72.00
2023-05-14T09:00:56.790Z,71.70
2023-05-14T09:03:23.969Z,71.50
2023-05-14T09:05:51.650Z,71.60
2023-05-14T09:08:19.794Z,71.40
2023-05-14T09:10:46.872Z,71.50
2023-05-14T09:13:14.304Z,71.50
2023-05-14T09:15:41.632Z,71.70
2023-05-14T09:18:09.560Z,71.80
2023-05-14T09:20:36.853Z,71.70
2023-05-14T09:23:04.164Z,71.30
2023-05-14T09:25:31.933Z,71.40
2023-05-14T09:28:05.794Z,71.20
2023-05-14T09:30:34.869Z,71.10
2023-05-14T09:33:34.851Z,71.20
2023-05-14T09:36:02.317Z,71.00
2023-05-14T09:38:33.326Z,70.80
2023-05-14T09:41:00.744Z,71.00
2023-05-14T09:43:30.565Z,70.90
2023-05-14T09:46:05.134Z,70.80
2023-05-14T09:48:32.140Z,70.70
2023-05-14T09:50:59.586Z,70.70
2023-05-14T09:53:26.737Z,70.80
2023-05-14T09:55:54.206Z,70.60
2023-05-14T09:58:21.575Z,70.70
2023-05-14T10:00:48.955Z,70.60
2023-05-14T10:03:20.457Z,70.60
2023-05-14T10:05:49.196Z,70.40
2023-05-14T10:08:25.303Z,70.30
2023-05-14T10:10:54.023Z,70.70
2023-05-14T10:13:22.915Z,70.50
2023-05-14T10:16:02.139Z,70.50
2023-05-14T10:18:31.380Z,70.40
2023-05-14T10:21:05.082Z,70.30
2023-05-14T10:23:37.999Z,69.60
2023-05-14T10:26:05.387Z,69.00
2023-05-14T10:28:32.371Z,69.20
2023-05-14T10:31:05.468Z,69.30
2023-05-14T10:33:46.671Z,69.30
2023-05-14T10:36:13.994Z,68.90
2023-05-14T10:38:41.548Z,69.00
2023-05-14T10:41:22.609Z,69.60
2023-05-14T10:43:57.638Z,69.50
2023-05-14T10:46:24.733Z,69.80
2023-05-14T10:48:51.936Z,70.20
2023-05-14T10:51:20.821Z,70.40
2023-05-14T10:53:47.665Z,70.20
2023-05-14T10:56:17.485Z,69.90
2023-05-14T10:58:45.130Z,68.60
2023-05-14T11:01:14.540Z,68.30
2023-05-14T11:03:46.067Z,68.50
2023-05-14T11:06:15.761Z,68.60
2023-05-14T11:08:46.389Z,68.30
2023-05-14T11:11:14.989Z,68.20
2023-05-14T11:13:45.971Z,68.10
2023-05-14T11:16:23.427Z,68.20
2023-05-14T11:19:00.847Z,68.00
2023-05-14T11:21:28.378Z,67.80
2023-05-14T11:23:56.853Z,67.50
2023-05-14T11:26:24.425Z,66.10
2023-05-14T11:28:52.817Z,64.40
2023-05-14T11:31:20.860Z,63.00
2023-05-14T11:33:49.241Z,63.50
2023-05-14T11:36:16.360Z,64.10
2023-05-14T11:38:49.029Z,64.40
2023-05-14T11:41:16.312Z,64.40
2023-05-14T11:43:43.525Z,64.70
2023-05-14T11:46:16.263Z,65.00
2023-05-14T11:48:43.458Z,64.30
2023-05-14T11:51:10.455Z,64.30
2023-05-14T11:53:37.424Z,64.40
2023-05-14T11:56:04.412Z,64.00
2023-05-14T11:58:34.471Z,63.90
2023-05-14T12:01:01.406Z,63.10
2023-05-14T12:03:30.411Z,62.10
2023-05-14T12:06:01.991Z,59.60
2023-05-14T12:08:29.815Z,59.80
2023-05-14T12:10:58.860Z,60.30
2023-05-14T12:13:32.552Z,60.70
2023-05-14T12:16:02.838Z,60.70
2023-05-14T12:18:33.824Z,61.30
2023-05-14T12:21:04.343Z,61.70
2023-05-14T12:23:32.332Z,61.10
2023-05-14T12:26:03.740Z,61.50
2023-05-14T12:28:30.975Z,58.30
2023-05-14T12:30:59.033Z,57.30
2023-05-14T12:33:26.865Z,57.50
2023-05-14T12:35:54.013Z,57.10
2023-05-14T12:38:21.020Z,55.60
2023-05-14T12:40:48.186Z,56.20
2023-05-14T12:43:16.753Z,56.80
2023-05-14T12:45:46.740Z,57.00
2023-05-14T12:48:17.008Z,56.10
2023-05-14T12:50:43.985Z,55.50
2023-05-14T12:53:10.801Z,55.80
2023-05-14T12:55:37.882Z,55.90
2023-05-14T12:58:08.577Z,55.90
2023-05-14T13:00:35.684Z,56.30
2023-05-14T13:03:02.580Z,56.90
2023-05-14T13:05:29.698Z,57.10
2023-05-14T13:07:59.113Z,57.90
2023-05-14T13:10:26.211Z,58.40
2023-05-14T13:12:53.225Z,58.10
2023-05-14T13:15:23.497Z,57.40
2023-05-14T13:17:51.225Z,57.20
2023-05-14T13:20:21.281Z,56.80
2023-05-14T13:22:48.517Z,57.00
2023-05-14T13:25:15.496Z,57.40
2023-05-14T13:27:42.409Z,57.90
2023-05-14T13:30:20.413Z,57.20
2023-05-14T13:32:47.489Z,56.90
2023-05-14T13:35:15.007Z,56.40
2023-05-14T13:37:44.933Z,56.60
2023-05-14T13:40:12.656Z,56.70
2023-05-14T13:42:42.769Z,57.10
2023-05-14T13:45:10.007Z,56.70
2023-05-14T13:47:36.963Z,54.60
2023-05-14T13:50:03.956Z,54.40
2023-05-14T13:52:31.064Z,55.00
2023-05-14T13:54:58.114Z,55.20
2023-05-14T13:57:24.988Z,53.00
2023-05-14T13:59:52.106Z,51.60
2023-05-14T14:02:19.286Z,51.60
2023-05-14T14:04:46.066Z,50.90
2023-05-14T14:07:13.102Z,50.30
2023-05-14T14:09:40.223Z,50.40
2023-05-14T14:12:07.427Z,50.70
2023-05-14T14:14:34.271Z,50.80
2023-05-14T14:17:01.400Z,50.50
2023-05-14T14:19:28.166Z,50.80
2023-05-14T14:21:55.089Z,50.90
2023-05-14T14:24:22.061Z,51.10
2023-05-14T14:26:49.230Z,51.00
2023-05-14T14:29:16.238Z,50.80
2023-05-14T14:31:43.670Z,51.20
2023-05-14T14:34:11.180Z,51.00
2023-05-14T14:36:38.442Z,50.60
2023-05-14T14:39:08.778Z,50.10
2023-05-14T14:41:35.820Z,50.10
2023-05-14T14:44:05.619Z,50.00
2023-05-14T14:46:32.711Z,50.30
2023-05-14T14:49:01.813Z,50.60
2023-05-14T14:51:30.053Z,50.20
2023-05-14T14:53:56.897Z,49.60
2023-05-14T14:56:23.943Z,49.50
2023-05-14T14:58:51.124Z,49.50
2023-05-14T15:01:18.165Z,49.90
2023-05-14T15:03:45.893Z,50.10
2023-05-14T15:06:13.144Z,50.10
2023-05-14T15:08:40.040Z,49.50
2023-05-14T15:11:07.792Z,48.60
2023-05-14T15:13:34.842Z,48.30
2023-05-14T15:16:04.102Z,48.00
2023-05-14T15:18:31.032Z,48.10
2023-05-14T15:20:58.240Z,48.20
2023-05-14T15:23:25.278Z,48.10
2023-05-14T15:25:52.590Z,48.30
2023-05-14T15:28:22.317Z,48.60
2023-05-14T15:30:49.409Z,48.70
2023-05-14T15:33:19.632Z,48.50
2023-05-14T15:35:46.798Z,48.60
2023-05-14T15:38:14.410Z,48.60
2023-05-14T15:40:41.644Z,48.00
2023-05-14T15:43:10.138Z,48.10
2023-05-14T15:45:37.524Z,48.40
2023-05-14T15:48:04.855Z,47.70
2023-05-14T15:50:34.598Z,47.70
2023-05-14T15:53:02.043Z,47.60
2023-05-14T15:55:29.067Z,47.40
2023-05-14T15:57:58.993Z,47.60
2023-05-14T16:00:26.308Z,47.80
2023-05-14T16:02:54.848Z,47.90
2023-05-14T16:05:22.195Z,48.10
2023-05-14T16:07:49.508Z,48.10
2023-05-14T16:10:16.785Z,48.20
2023-05-14T16:12:46.966Z,48.10
2023-05-14T16:15:14.340Z,47.90
2023-05-14T16:17:42.836Z,48.00
2023-05-14T16:20:10.356Z,48.10
2023-05-14T16:22:40.925Z,48.00
2023-05-14T16:25:08.131Z,48.00
2023-05-14T16:27:35.172Z,48.00
2023-05-14T16:30:04.086Z,48.00
2023-05-14T16:32:31.224Z,48.00
2023-05-14T16:34:58.371Z,48.00
2023-05-14T16:37:25.243Z,48.00
2023-05-14T16:39:52.681Z,48.00
2023-05-14T16:42:19.743Z,48.10
2023-05-14T16:44:46.710Z,48.00
2023-05-14T16:47:13.895Z,48.00
2023-05-14T16:49:44.241Z,48.10
2023-05-14T16:52:11.442Z,48.10
2023-05-14T16:54:39.606Z,48.20
2023-05-14T16:57:06.667Z,48.30
2023-05-14T16:59:33.614Z,48.40
2023-05-14T17:02:01.245Z,48.50
2023-05-14T17:04:28.468Z,48.70
2023-05-14T17:06:57.203Z,49.10
2023-05-14T17:09:24.366Z,49.40
2023-05-14T17:11:51.530Z,49.50
2023-05-14T17:14:18.758Z,49.40
2023-05-14T17:16:45.790Z,49.40
2023-05-14T17:19:13.005Z,49.40
2023-05-14T17:21:40.106Z,49.20
2023-05-14T17:24:09.416Z,49.00
2023-05-14T17:26:37.930Z,48.90
2023-05-14T17:29:08.044Z,48.90
2023-05-14T17:31:35.350Z,49.00
2023-05-14T17:34:02.372Z,49.10
2023-05-14T17:36:29.465Z,49.20
2023-05-14T17:38:59.623Z,49.40
2023-05-14T17:41:27.058Z,49.50
2023-05-14T17:43:54.280Z,49.60
2023-05-14T17:46:21.536Z,49.80
2023-05-14T17:48:51.550Z,50.00
2023-05-14T17:51:21.074Z,50.10
2023-05-14T17:53:55.178Z,50.20
2023-05-14T17:56:22.418Z,50.20
2023-05-14T17:58:52.551Z,50.10
2023-05-14T18:01:20.911Z,50.20
2023-05-14T18:03:48.064Z,50.40
2023-05-14T18:06:17.906Z,50.30
2023-05-14T18:08:50.924Z,50.40
2023-05-14T18:11:19.262Z,50.40
2023-05-14T18:13:46.068Z,50.40
2023-05-14T18:16:20.955Z,50.70
2023-05-14T18:18:48.032Z,50.80
2023-05-14T18:21:14.865Z,50.70
2023-05-14T18:23:42.038Z,50.70
2023-05-14T18:26:09.088Z,50.90
2023-05-14T18:28:39.528Z,51.00
2023-05-14T18:31:06.706Z,51.00
2023-05-14T18:33:33.931Z,51.00
2023-05-14T18:36:01.570Z,51.10
2023-05-14T18:38:30.601Z,51.10
2023-05-14T18:40:58.095Z,51.10
2023-05-14T18:43:25.294Z,51.20
2023-05-14T18:45:52.274Z,51.20
2023-05-14T18:48:20.620Z,51.20
2023-05-14T18:50:51.462Z,51.30
2023-05-14T18:53:18.404Z,51.30
2023-05-14T18:55:45.277Z,51.30
2023-05-14T18:58:15.675Z,51.40
2023-05-14T19:00:42.602Z,51.50
2023-05-14T19:03:09.560Z,51.40
2023-05-14T19:05:37.904Z,51.40
2023-05-14T19:08:04.906Z,51.50
2023-05-14T19:10:34.432Z,51.50
2023-05-14T19:13:01.996Z,51.50
2023-05-14T19:15:28.949Z,51.60
2023-05-14T19:17:56.271Z,51.70
2023-05-14T19:20:23.166Z,51.70
2023-05-14T19:22:50.463Z,51.80
2023-05-14T19:25:17.604Z,51.80
2023-05-14T19:27:45.662Z,51.90
2023-05-14T19:30:13.028Z,51.90
2023-05-14T19:32:43.205Z,52.00
2023-05-14T19:35:11.546Z,52.80
2023-05-14T19:37:38.698Z,52.10
2023-05-14T19:40:06.595Z,52.10
2023-05-14T19:42:33.726Z,52.00
2023-05-14T19:45:00.858Z,51.90
2023-05-14T19:47:28.878Z,52.00
2023-05-14T19:49:55.793Z,52.00
2023-05-14T19:52:23.038Z,52.00
2023-05-14T19:54:50.113Z,52.00
2023-05-14T19:57:16.945Z,52.00
2023-05-14T19:59:44.672Z,52.00
2023-05-14T20:02:18.429Z,52.10
2023-05-14T20:04:46.115Z,52.00
2023-05-14T20:07:15.480Z,52.10
2023-05-14T20:09:42.749Z,52.10
2023-05-14T20:12:13.404Z,52.10
2023-05-14T20:14:41.324Z,52.10
2023-05-14T20:17:08.304Z,52.10
2023-05-14T20:19:35.351Z,52.10
2023-05-14T20:22:02.569Z,52.10
2023-05-14T20:24:29.610Z,52.10
2023-05-14T20:26:57.033Z,52.00
2023-05-14T20:29:23.908Z,52.10
2023-05-14T20:31:50.800Z,52.10
2023-05-14T20:34:17.791Z,52.20
2023-05-14T20:36:45.065Z,52.30
2023-05-14T20:39:11.924Z,52.30
2023-05-14T20:41:39.272Z,52.50
2023-05-14T20:44:09.420Z,52.60
2023-05-14T20:46:49.818Z,52.80
2023-05-14T20:49:25.711Z,52.80
2023-05-14T20:52:11.851Z,52.80
2023-05-14T20:55:18.629Z,52.70
2023-05-14T20:58:09.140Z,52.70
2023-05-14T21:00:53.144Z,52.70
2023-05-14T21:03:30.611Z,52.70
2023-05-14T21:09:06.688Z,52.60
2023-05-14T21:12:03.258Z,52.60
2023-05-14T21:15:07.716Z,52.70
2023-05-14T21:17:39.546Z,52.80
2023-05-14T21:20:16.917Z,52.60
2023-05-14T21:22:44.525Z,52.60
2023-05-14T21:25:11.725Z,52.60
2023-05-14T21:27:43.768Z,52.60
2023-05-14T21:30:16.668Z,52.60
2023-05-14T21:32:43.817Z,52.60
2023-05-14T21:35:10.813Z,53.40
2023-05-14T21:37:39.826Z,52.70
2023-05-14T21:40:09.258Z,52.80
2023-05-14T21:42:36.309Z,52.70
2023-05-14T21:45:03.549Z,52.70
2023-05-14T21:47:31.476Z,52.60
2023-05-14T21:49:58.495Z,52.60
2023-05-14T21:52:26.175Z,52.60
2023-05-14T21:54:53.107Z,52.90
2023-05-14T21:57:20.164Z,53.40
2023-05-14T21:59:47.011Z,53.80
2023-05-14T22:02:14.134Z,54.00
2023-05-14T22:04:41.236Z,53.90
2023-05-14T22:07:08.208Z,53.90
2023-05-14T22:09:37.672Z,53.80
2023-05-14T22:12:05.052Z,53.70
2023-05-14T22:14:32.055Z,53.70
2023-05-14T22:16:59.204Z,53.70
2023-05-14T22:19:27.229Z,53.60
2023-05-14T22:21:54.372Z,53.60
2023-05-14T22:24:21.442Z,53.60
2023-05-14T22:26:48.622Z,53.70
2023-05-14T22:29:15.545Z,53.70
2023-05-14T22:31:42.534Z,53.70
2023-05-14T22:34:09.562Z,53.70
2023-05-14T22:36:36.480Z,53.70
2023-05-14T22:39:04.331Z,53.60
2023-05-14T22:41:31.418Z,53.60
2023-05-14T22:43:58.276Z,53.50
2023-05-14T22:46:25.329Z,53.40
2023-05-14T22:48:52.504Z,53.50
2023-05-14T22:51:19.264Z,53.80
2023-05-14T22:53:47.074Z,53.80
2023-05-14T22:56:14.015Z,53.80
2023-05-14T22:58:40.927Z,53.80
2023-05-14T23:01:07.805Z,53.80
2023-05-14T23:03:34.691Z,53.70
2023-05-14T23:06:01.873Z,53.70
2023-05-14T23:08:28.772Z,53.70
2023-05-14T23:10:56.018Z,53.80
2023-05-14T23:13:23.066Z,53.80
2023-05-14T23:15:50.150Z,53.80
2023-05-14T23:18:17.323Z,53.80
2023-05-14T23:20:47.002Z,53.80
2023-05-14T23:23:14.194Z,53.80
2023-05-14T23:25:41.167Z,53.90
2023-05-14T23:28:08.223Z,54.00
2023-05-14T23:30:36.693Z,54.10
2023-05-14T23:33:03.706Z,54.10
2023-05-14T23:35:31.200Z,54.10
2023-05-14T23:37:58.337Z,54.10
2023-05-14T23:40:25.450Z,54.10
2023-05-14T23:42:52.436Z,54.10
2023-05-14T23:45:19.395Z,54.20
2023-05-14T23:47:46.798Z,54.30
2023-05-14T23:50:14.067Z,54.40
2023-05-14T23:52:40.962Z,54.50
2023-05-14T23:55:08.132Z,54.40
2023-05-14T23:57:35.581Z,54.40
